Time;durP1;ratioP1;P1;durP2;ratioP2;P2;SDS_P1;SDS_P2;PMS_P1;PMS_P2;Temp;Humidity;BMP_temperature;BMP_pressure;BME280_temperature;BME280_humidity;BME280_pressure;Samples;Min_cycle;Max_cycle;Signal;HPM_P1;HPM_P2
2021/01/14 00:00:48;;;;;;;5.53;1.42;;;;;;;1.08;90.53;100057.81;5234539;28;20032;-78
2021/01/14 00:03:18;;;;;;;7.10;1.20;;;;;;;1.06;91.65;100068.13;5236791;28;20140;-79
2021/01/14 00:05:48;;;;;;;8.15;1.40;;;;;;;0.99;93.13;100056.16;5234662;28;20154;-79
2021/01/14 00:08:19;;;;;;;6.22;1.70;;;;;;;0.99;94.38;100066.44;5223473;28;20023;-79
2021/01/14 00:10:49;;;;;;;7.30;1.70;;;;;;;1.02;95.16;100045.84;5242302;28;20391;-79
2021/01/14 00:13:19;;;;;;;9.00;1.60;;;;;;;0.91;95.00;100049.34;5245659;28;20506;-79
2021/01/14 00:15:49;;;;;;;4.68;1.40;;;;;;;0.85;95.30;100060.53;5238003;28;20108;-80
2021/01/14 00:18:20;;;;;;;6.30;1.38;;;;;;;0.91;95.41;100068.19;5224936;28;20029;-78
2021/01/14 00:20:50;;;;;;;5.20;1.35;;;;;;;0.88;95.29;100073.34;5207390;28;20021;-78
2021/01/14 00:23:20;;;;;;;7.30;1.77;;;;;;;0.87;95.12;100081.09;5224775;28;20503;-78
2021/01/14 00:25:50;;;;;;;5.10;1.50;;;;;;;0.88;95.11;100080.22;5225471;28;20079;-77
2021/01/14 00:28:21;;;;;;;4.55;1.70;;;;;;;0.90;95.32;100091.38;5224750;28;20025;-77
2021/01/14 00:30:51;;;;;;;4.78;1.40;;;;;;;0.86;95.47;100095.66;5206627;28;20047;-78
2021/01/14 00:33:21;;;;;;;5.97;1.60;;;;;;;0.88;95.25;100096.50;5230753;28;20509;-79
2021/01/14 00:35:52;;;;;;;5.07;1.52;;;;;;;0.89;96.15;100090.50;5233159;28;20056;-78
2021/01/14 00:38:22;;;;;;;5.40;1.60;;;;;;;0.87;96.44;100091.38;5229571;28;20028;-78
2021/01/14 00:40:52;;;;;;;5.03;1.52;;;;;;;0.91;96.30;100100.78;5236021;28;20100;-78
2021/01/14 00:43:22;;;;;;;6.30;1.38;;;;;;;0.88;95.93;100103.38;5234844;28;20389;-78
2021/01/14 00:45:53;;;;;;;6.57;1.70;;;;;;;0.88;95.74;100100.81;5227171;28;20148;-79
2021/01/14 00:48:23;;;;;;;4.43;1.58;;;;;;;0.87;96.04;100110.22;5223707;28;20029;-78
2021/01/14 00:50:53;;;;;;;5.10;1.50;;;;;;;0.90;96.09;100112.78;5223592;28;20021;-78
2021/01/14 00:53:23;;;;;;;5.35;1.50;;;;;;;0.93;96.10;100117.91;5222480;28;20082;-78
2021/01/14 00:55:54;;;;;;;6.57;1.55;;;;;;;0.89;95.89;100118.78;5224456;28;20024;-78
2021/01/14 00:58:24;;;;;;;6.50;1.42;;;;;;;0.84;96.24;100112.81;5224001;28;20689;-78
2021/01/14 01:00:54;;;;;;;5.38;1.40;;;;;;;0.86;96.28;100136.81;5223955;28;20045;-80
2021/01/14 01:03:24;;;;;;;4.68;1.60;;;;;;;0.88;96.40;100129.94;5223518;28;20450;-79
2021/01/14 01:05:55;;;;;;;4.43;1.45;;;;;;;0.88;96.74;100127.38;5224335;28;20009;-78
2021/01/14 01:08:25;;;;;;;6.70;1.70;;;;;;;0.92;97.28;100129.06;5223796;28;20032;-78
2021/01/14 01:10:55;;;;;;;5.32;1.50;;;;;;;0.88;96.75;100119.66;5222684;28;20091;-78
2021/01/14 01:13:26;;;;;;;5.10;1.60;;;;;;;0.91;96.86;100129.06;5203403;28;20013;-79
2021/01/14 01:15:56;;;;;;;5.20;1.50;;;;;;;0.92;96.96;100136.78;5222940;28;20024;-78
2021/01/14 01:18:26;;;;;;;4.75;1.50;;;;;;;1.02;97.05;100138.44;5226600;28;20040;-78
2021/01/14 01:20:56;;;;;;;7.03;1.80;;;;;;;0.98;96.55;100136.75;5231860;28;20032;-78
2021/01/14 01:23:27;;;;;;;2.83;1.27;;;;;;;0.95;96.45;100131.63;5230442;28;20549;-79
2021/01/14 01:25:57;;;;;;;3.97;1.40;;;;;;;0.94;96.84;100127.34;5226766;28;20028;-78
2021/01/14 01:28:27;;;;;;;4.00;1.23;;;;;;;0.91;96.93;100119.63;5232004;28;20032;-79
2021/01/14 01:30:58;;;;;;;5.03;1.38;;;;;;;0.95;96.62;100136.78;5228815;28;20035;-79
2021/01/14 01:33:28;;;;;;;4.65;1.30;;;;;;;0.96;96.51;100132.47;5222689;28;20376;-78
2021/01/14 01:35:58;;;;;;;4.70;1.30;;;;;;;0.97;97.10;100134.19;5223440;28;20025;-79
2021/01/14 01:38:29;;;;;;;6.97;1.40;;;;;;;1.00;97.24;100139.31;5221990;28;20036;-78
2021/01/14 01:41:01;;;;;;;7.40;1.20;;;;;;;0.99;97.21;100127.31;5222267;28;20032;-79
2021/01/14 01:43:31;;;;;;;4.13;1.30;;;;;;;0.96;97.39;100153.91;5222963;28;20479;-79
2021/01/14 01:46:03;;;;;;;6.18;1.27;;;;;;;0.99;97.24;100138.47;5222307;28;20025;-79
2021/01/14 01:48:33;;;;;;;4.85;1.20;;;;;;;1.00;97.31;100150.47;5222838;28;20398;-80
2021/01/14 01:51:04;;;;;;;4.57;1.38;;;;;;;1.03;97.91;100160.75;5223316;28;20033;-78
2021/01/14 01:53:34;;;;;;;6.82;1.20;;;;;;;1.05;97.61;100164.16;5222606;28;20569;-78
2021/01/14 01:56:05;;;;;;;5.70;1.45;;;;;;;1.08;97.73;100164.13;5222773;28;20087;-78
2021/01/14 01:58:39;;;;;;;4.88;1.63;;;;;;;1.06;97.74;100175.31;5204957;28;20025;-78
2021/01/14 02:01:10;;;;;;;5.77;1.73;;;;;;;1.07;98.01;100177.03;5219551;28;20025;-78
2021/01/14 02:03:40;;;;;;;4.95;1.65;;;;;;;0.98;97.73;100183.06;5204492;28;20035;-78
2021/01/14 02:06:10;;;;;;;4.60;1.20;;;;;;;0.94;97.96;100183.94;5222183;28;20068;-78
2021/01/14 02:08:50;;;;;;;4.63;1.50;;;;;;;1.00;98.22;100191.63;5222253;28;20024;-81
2021/01/14 02:11:38;;;;;;;3.28;1.52;;;;;;;1.04;98.31;100198.47;5221969;28;20021;-78
2021/01/14 02:14:11;;;;;;;7.57;1.70;;;;;;;1.07;98.21;100208.72;5221993;28;20136;-79
2021/01/14 02:16:43;;;;;;;5.97;1.15;;;;;;;1.05;98.50;100199.34;5222399;28;20021;-78
2021/01/14 02:19:20;;;;;;;6.15;1.50;;;;;;;1.07;98.67;100211.31;5220630;28;20027;-80
2021/01/14 02:21:57;;;;;;;7.10;1.80;;;;;;;1.05;98.67;100215.59;5219756;28;20503;-79
2021/01/14 02:24:37;;;;;;;7.40;1.45;;;;;;;1.06;98.28;100211.34;5222202;28;20016;-78
2021/01/14 02:27:08;;;;;;;6.88;1.70;;;;;;;1.09;98.79;100222.44;5222474;28;20101;-78
2021/01/14 02:29:40;;;;;;;6.20;1.40;;;;;;;1.11;98.73;100215.59;5222064;28;20032;-78
2021/01/14 02:32:15;;;;;;;3.95;1.50;;;;;;;1.09;98.53;100225.00;5222430;28;20064;-78
2021/01/14 02:34:49;;;;;;;8.77;1.83;;;;;;;1.08;99.11;100223.31;5204153;28;20610;-80
2021/01/14 02:37:20;;;;;;;6.07;1.58;;;;;;;1.13;98.70;100223.28;5224979;28;20548;-78
2021/01/14 02:39:50;;;;;;;7.13;1.50;;;;;;;1.10;98.83;100228.47;5222074;28;20059;-80
2021/01/14 02:42:20;;;;;;;6.25;1.50;;;;;;;1.12;99.01;100243.03;5222019;28;20033;-78
2021/01/14 02:44:50;;;;;;;9.30;1.70;;;;;;;1.12;98.99;100248.19;5222021;28;20029;-79
2021/01/14 02:47:21;;;;;;;5.88;1.55;;;;;;;1.15;99.73;100247.28;5221692;28;20495;-78
2021/01/14 02:49:57;;;;;;;7.32;1.65;;;;;;;1.18;99.86;100262.72;5222436;28;20692;-78
2021/01/14 02:52:30;;;;;;;6.53;1.70;;;;;;;1.15;99.65;100263.59;5221892;28;20025;-80
2021/01/14 02:55:00;;;;;;;9.95;1.88;;;;;;;1.14;99.85;100264.47;5221987;28;20608;-79
2021/01/14 02:57:31;;;;;;;7.78;1.67;;;;;;;1.21;100.00;100273.88;5221724;28;20021;-77
2021/01/14 03:00:03;;;;;;;4.97;1.30;;;;;;;1.20;99.85;100279.88;5222070;28;20492;-78
2021/01/14 03:02:34;;;;;;;8.07;1.90;;;;;;;1.18;99.78;100283.31;5222217;28;20039;-78
2021/01/14 03:05:04;;;;;;;7.50;2.22;;;;;;;1.24;100.00;100281.56;5222299;28;20116;-78
2021/01/14 03:07:35;;;;;;;7.65;1.70;;;;;;;1.24;100.00;100280.72;5220653;28;20076;-80
2021/01/14 03:10:06;;;;;;;5.40;1.48;;;;;;;1.24;100.00;100299.59;5221719;28;20120;-79
2021/01/14 03:12:36;;;;;;;8.10;1.92;;;;;;;1.25;100.00;100285.00;5221971;28;20047;-79
2021/01/14 03:15:07;;;;;;;3.35;1.65;;;;;;;1.29;100.00;100300.44;5221560;28;20028;-77
2021/01/14 03:17:37;;;;;;;6.78;1.85;;;;;;;1.27;100.00;100293.59;5221769;28;20028;-79
2021/01/14 03:20:08;;;;;;;6.72;2.25;;;;;;;1.25;100.00;100309.00;5221926;28;20029;-78
2021/01/14 03:22:39;;;;;;;6.53;1.55;;;;;;;1.28;100.00;100316.75;5222045;28;20029;-78
2021/01/14 03:25:11;;;;;;;7.25;1.95;;;;;;;1.31;100.00;100316.75;5222088;28;20032;-79
2021/01/14 03:27:43;;;;;;;4.45;1.58;;;;;;;1.30;100.00;100320.19;5221561;28;20087;-79
2021/01/14 03:30:14;;;;;;;6.18;1.63;;;;;;;1.27;100.00;100327.88;5221802;28;20032;-78
2021/01/14 03:32:44;;;;;;;4.15;1.80;;;;;;;1.26;100.00;100349.34;5220621;28;20036;-78
2021/01/14 03:35:15;;;;;;;8.48;1.98;;;;;;;1.31;100.00;100357.91;5221339;28;20028;-78
2021/01/14 03:37:45;;;;;;;8.38;2.10;;;;;;;1.32;100.00;100351.91;5220844;28;20021;-79
2021/01/14 03:40:16;;;;;;;10.32;2.50;;;;;;;1.35;100.00;100364.75;5221768;28;20025;-80
2021/01/14 03:42:46;;;;;;;7.00;2.10;;;;;;;1.39;100.00;100370.78;5220360;28;20048;-78
2021/01/14 03:45:17;;;;;;;7.30;2.20;;;;;;;1.35;100.00;100369.03;5220439;28;20024;-78
2021/01/14 03:47:47;;;;;;;8.45;2.38;;;;;;;1.35;100.00;100374.19;5221070;28;20139;-78
2021/01/14 03:50:17;;;;;;;6.88;2.03;;;;;;;1.37;100.00;100380.22;5220828;28;20403;-78
2021/01/14 03:52:50;;;;;;;6.18;2.03;;;;;;;1.36;100.00;100381.91;5220975;28;20087;-78
2021/01/14 03:55:20;;;;;;;6.20;1.95;;;;;;;1.42;100.00;100391.34;5202227;28;20338;-78
2021/01/14 03:57:50;;;;;;;7.18;2.08;;;;;;;1.37;100.00;100390.50;5203323;28;20049;-79
2021/01/14 04:00:21;;;;;;;8.15;2.13;;;;;;;1.35;100.00;100399.94;5203518;28;20119;-79
2021/01/14 04:02:51;;;;;;;4.30;2.20;;;;;;;1.34;100.00;100396.50;5221722;28;20021;-79
2021/01/14 04:05:21;;;;;;;7.35;2.38;;;;;;;1.42;100.00;100405.06;5225009;28;20029;-78
2021/01/14 04:07:52;;;;;;;4.28;2.00;;;;;;;1.42;100.00;100406.78;5226129;28;20029;-78
2021/01/14 04:10:22;;;;;;;7.88;1.80;;;;;;;1.45;100.00;100401.63;5225103;28;20086;-79
2021/01/14 04:12:53;;;;;;;6.13;2.25;;;;;;;1.45;100.00;100414.50;5225004;28;20036;-80
2021/01/14 04:15:23;;;;;;;4.55;1.98;;;;;;;1.43;100.00;100418.81;5224539;28;20036;-79
2021/01/14 04:17:53;;;;;;;5.93;2.05;;;;;;;1.47;100.00;100421.38;5225046;28;20024;-79
2021/01/14 04:20:23;;;;;;;8.13;2.53;;;;;;;1.42;100.00;100428.22;5224872;28;20033;-78
2021/01/14 04:22:54;;;;;;;5.70;2.25;;;;;;;1.42;100.00;100432.53;5225108;28;20127;-79
2021/01/14 04:25:30;;;;;;;11.35;2.50;;;;;;;1.44;100.00;100435.97;5224726;28;20025;-78
2021/01/14 04:28:01;;;;;;;5.95;2.30;;;;;;;1.39;100.00;100443.69;5224364;28;20056;-79
2021/01/14 04:30:33;;;;;;;6.63;2.50;;;;;;;1.46;100.00;100452.25;5215988;28;20025;-78
2021/01/14 04:33:13;;;;;;;7.63;2.60;;;;;;;1.55;100.00;100458.25;5224594;28;20116;-80
2021/01/14 04:35:45;;;;;;;7.07;2.55;;;;;;;1.51;100.00;100464.28;5224135;28;20021;-79
2021/01/14 04:38:17;;;;;;;8.55;2.40;;;;;;;1.48;100.00;100456.56;5223658;28;20491;-78
2021/01/14 04:41:02;;;;;;;7.63;2.33;;;;;;;1.49;100.00;100465.13;5223854;28;20033;-80
2021/01/14 04:43:33;;;;;;;8.95;2.70;;;;;;;1.47;100.00;100470.28;5208373;28;20076;-79
2021/01/14 04:46:05;;;;;;;5.90;2.45;;;;;;;1.46;100.00;100466.00;5224764;28;20025;-78
2021/01/14 04:48:39;;;;;;;6.55;2.60;;;;;;;1.44;100.00;100472.00;5224723;28;20032;-78
2021/01/14 04:51:16;;;;;;;8.50;2.53;;;;;;;1.45;100.00;100484.88;5224221;28;20017;-80
2021/01/14 04:53:50;;;;;;;8.35;2.55;;;;;;;1.47;100.00;100490.00;5223861;28;20037;-80
2021/01/14 04:56:23;;;;;;;5.95;2.20;;;;;;;1.47;100.00;100498.63;5224527;28;20104;-79
2021/01/14 04:59:01;;;;;;;6.03;2.70;;;;;;;1.58;100.00;100506.31;5224020;28;20438;-79
2021/01/14 05:01:41;;;;;;;6.95;2.92;;;;;;;1.57;100.00;100504.63;5219538;28;20021;-79
2021/01/14 05:04:20;;;;;;;6.13;2.70;;;;;;;1.51;100.00;100505.47;5205337;28;20023;-78
2021/01/14 05:06:58;;;;;;;6.18;2.80;;;;;;;1.56;100.00;100516.63;5221457;28;20115;-78
2021/01/14 05:09:37;;;;;;;6.85;3.30;;;;;;;1.47;100.00;100515.75;5224398;28;20087;-78
2021/01/14 05:12:09;;;;;;;7.65;3.20;;;;;;;1.53;100.00;100528.63;5223485;28;20031;-78
2021/01/14 05:14:39;;;;;;;10.85;3.38;;;;;;;1.52;100.00;100519.19;5223194;28;20032;-80
2021/01/14 05:17:10;;;;;;;7.40;2.90;;;;;;;1.52;100.00;100532.06;5222672;28;20028;-78
2021/01/14 05:19:41;;;;;;;6.47;3.17;;;;;;;1.54;100.00;100525.22;5223801;28;20032;-79
2021/01/14 05:22:11;;;;;;;7.03;3.15;;;;;;;1.63;100.00;100526.06;5223700;28;20029;-79
2021/01/14 05:25:08;;;;;;;7.13;3.15;;;;;;;1.50;100.00;100538.94;5222893;28;20102;-78
2021/01/14 05:27:39;;;;;;;5.97;3.08;;;;;;;1.51;100.00;100538.94;5223639;28;20513;-80
2021/01/14 05:30:11;;;;;;;6.72;2.90;;;;;;;1.58;100.00;100545.78;5205616;28;20033;-79
2021/01/14 05:32:43;;;;;;;5.53;2.97;;;;;;;1.57;100.00;100554.38;5224925;28;20028;-78
2021/01/14 05:35:15;;;;;;;7.55;3.25;;;;;;;1.53;100.00;100562.97;5222706;28;20032;-78
2021/01/14 05:37:46;;;;;;;7.68;3.40;;;;;;;1.61;100.00;100573.28;5222103;28;20087;-79
2021/01/14 05:40:23;;;;;;;5.65;3.30;;;;;;;1.55;100.00;100566.41;5223241;28;20033;-80
2021/01/14 05:43:04;;;;;;;6.38;3.15;;;;;;;1.54;100.00;100577.56;5203710;28;20017;-78
2021/01/14 05:45:35;;;;;;;11.90;3.00;;;;;;;1.60;100.00;100579.28;5218132;28;20024;-79
2021/01/14 05:48:10;;;;;;;7.97;3.42;;;;;;;1.64;100.00;100587.00;5223037;28;20054;-79
2021/01/14 05:50:49;;;;;;;6.10;2.97;;;;;;;1.57;100.00;100598.16;5222713;28;20591;-79
2021/01/14 05:53:21;;;;;;;7.50;3.17;;;;;;;1.56;100.00;100596.44;5222718;28;20511;-80
2021/01/14 05:55:51;;;;;;;9.18;3.40;;;;;;;1.51;100.00;100603.31;5222752;28;20029;-79
2021/01/14 05:58:26;;;;;;;9.25;3.90;;;;;;;1.58;100.00;100612.75;5222486;28;20025;-80
2021/01/14 06:01:03;;;;;;;7.70;3.40;;;;;;;1.48;100.00;100612.72;5224249;28;20043;-79
2021/01/14 06:03:33;;;;;;;6.20;3.50;;;;;;;1.54;100.00;100623.91;5234537;28;20057;-79
2021/01/14 06:06:15;;;;;;;9.90;3.75;;;;;;;1.47;100.00;100626.47;5223827;28;20017;-79
2021/01/14 06:08:46;;;;;;;9.15;3.95;;;;;;;1.43;100.00;100638.47;5204366;28;20106;-79
2021/01/14 06:11:22;;;;;;;6.07;3.40;;;;;;;1.52;100.00;100633.34;5204836;28;20033;-79
2021/01/14 06:13:53;;;;;;;10.93;4.22;;;;;;;1.59;100.00;100639.38;5220799;28;20028;-81
2021/01/14 06:16:23;;;;;;;8.65;4.00;;;;;;;1.57;100.00;100649.66;5222767;28;20419;-78
2021/01/14 06:19:07;;;;;;;9.80;3.97;;;;;;;1.52;100.00;100645.34;5222102;28;20047;-79
2021/01/14 06:21:45;;;;;;;8.88;4.07;;;;;;;1.53;100.00;100665.97;5221034;28;20060;-79
2021/01/14 06:24:30;;;;;;;8.75;4.13;;;;;;;1.55;100.00;100661.66;5222106;28;20442;-78
2021/01/14 06:27:00;;;;;;;;;;;;;;;1.53;100.00;100671.09;5221929;28;20027;-79
2021/01/14 06:29:39;;;;;;;11.20;5.00;;;;;;;1.50;100.00;100673.69;5221625;28;19909;-80
2021/01/14 06:32:09;;;;;;;8.00;4.82;;;;;;;1.57;100.00;100685.69;5222415;28;20040;-79
2021/01/14 06:34:42;;;;;;;10.50;5.43;;;;;;;1.60;100.00;100684.84;5221538;28;20479;-78
2021/01/14 06:37:13;;;;;;;13.35;5.07;;;;;;;1.59;100.00;100690.88;5206609;28;20047;-80
2021/01/14 06:39:48;;;;;;;10.52;4.57;;;;;;;1.58;100.00;100695.13;5221194;28;20025;-78
2021/01/14 06:42:27;;;;;;;9.20;4.20;;;;;;;1.58;100.00;100699.44;5222086;28;20106;-79
2021/01/14 06:44:58;;;;;;;11.65;4.00;;;;;;;1.63;100.00;100708.91;5217020;28;20395;-80
2021/01/14 06:47:46;;;;;;;11.38;4.40;;;;;;;1.69;100.00;100716.63;5221852;28;20118;-79
2021/01/14 06:50:20;;;;;;;14.27;4.70;;;;;;;1.59;100.00;100719.19;5221418;28;20091;-79
2021/01/14 06:52:59;;;;;;;6.95;3.95;;;;;;;1.68;100.00;100720.06;5222676;28;20094;-80
2021/01/14 06:55:33;;;;;;;10.93;5.00;;;;;;;1.65;100.00;100738.09;5222571;28;20021;-80
2021/01/14 06:58:07;;;;;;;10.10;4.40;;;;;;;1.64;100.00;100738.97;5223092;28;20016;-79
2021/01/14 07:00:41;;;;;;;7.93;4.30;;;;;;;1.65;100.00;100735.53;5222796;28;20044;-78
2021/01/14 07:03:12;;;;;;;9.98;4.90;;;;;;;1.74;100.00;100734.69;5221750;28;20029;-79
2021/01/14 07:05:58;;;;;;;11.87;5.13;;;;;;;1.67;100.00;100744.09;5221500;28;20017;-78
2021/01/14 07:08:39;;;;;;;10.57;5.00;;;;;;;1.63;100.00;100747.53;5220879;28;20890;-78
2021/01/14 07:11:17;;;;;;;10.20;4.80;;;;;;;1.72;100.00;100749.28;5222413;28;20442;-80
2021/01/14 07:13:49;;;;;;;10.85;4.97;;;;;;;1.65;100.00;100761.28;5221082;28;20032;-79
2021/01/14 07:16:25;;;;;;;14.23;5.43;;;;;;;1.65;100.00;100763.84;5223421;28;20386;-80
2021/01/14 07:18:56;;;;;;;15.55;5.40;;;;;;;1.60;100.00;100773.25;5223966;28;20390;-80
2021/01/14 07:21:32;;;;;;;13.98;5.40;;;;;;;1.78;100.00;100779.34;5223524;28;20040;-80
2021/01/14 07:24:19;;;;;;;8.95;4.82;;;;;;;1.67;100.00;100777.59;5221054;28;20031;-80
2021/01/14 07:26:56;;;;;;;10.48;4.93;;;;;;;1.64;100.00;100790.47;5222388;28;20288;-80
2021/01/14 07:29:26;;;;;;;11.48;4.88;;;;;;;1.72;100.00;100788.75;5222578;28;20025;-80
2021/01/14 07:31:59;;;;;;;9.20;5.22;;;;;;;1.76;100.00;100795.63;5223464;28;20166;-80
2021/01/14 07:34:42;;;;;;;12.93;5.35;;;;;;;1.74;100.00;100802.50;5220100;28;20025;-78
2021/01/14 07:37:17;;;;;;;9.15;5.05;;;;;;;1.84;100.00;100809.41;5220837;28;20021;-79
2021/01/14 07:39:57;;;;;;;11.02;5.03;;;;;;;1.77;100.00;100817.13;5221149;28;20507;-78
2021/01/14 07:42:30;;;;;;;11.27;5.35;;;;;;;1.84;100.00;100820.56;5225523;28;20356;-78
2021/01/14 07:45:14;;;;;;;10.65;5.13;;;;;;;1.79;100.00;100821.44;5225366;28;20487;-79
2021/01/14 07:47:44;;;;;;;9.32;5.10;;;;;;;1.91;100.00;100827.47;5225453;28;20059;-78
2021/01/14 07:50:25;;;;;;;9.13;4.50;;;;;;;1.82;100.00;100837.72;5220757;28;20052;-79
2021/01/14 07:52:58;;;;;;;10.60;5.25;;;;;;;1.87;100.00;100840.34;5226119;28;20033;-80
2021/01/14 07:55:34;;;;;;;9.57;5.50;;;;;;;1.84;100.00;100850.63;5225343;28;20397;-80
2021/01/14 07:58:23;;;;;;;12.45;5.63;;;;;;;1.88;100.00;100852.34;5224312;28;20037;-78
2021/01/14 08:01:10;;;;;;;12.65;5.47;;;;;;;1.88;100.00;100857.50;5223962;28;20028;-78
2021/01/14 08:03:42;;;;;;;10.95;5.75;;;;;;;1.77;100.00;100873.78;5224828;28;20025;-78
2021/01/14 08:06:25;;;;;;;12.02;5.50;;;;;;;1.82;100.00;100871.22;5224392;28;20731;-79
2021/01/14 08:09:01;;;;;;;12.70;5.97;;;;;;;1.83;100.00;100874.69;5223453;28;20029;-79
2021/01/14 08:11:33;;;;;;;11.98;6.07;;;;;;;1.91;100.00;100880.69;5224349;28;20425;-77
2021/01/14 08:14:14;;;;;;;13.23;6.03;;;;;;;1.87;100.00;100894.44;5224717;28;20108;-79
2021/01/14 08:16:52;;;;;;;15.13;5.75;;;;;;;1.90;100.00;100886.72;5224080;28;20544;-80
2021/01/14 08:19:34;;;;;;;17.33;5.72;;;;;;;1.90;100.00;100895.31;5224214;28;20482;-79
2021/01/14 08:22:06;;;;;;;14.88;5.97;;;;;;;1.99;100.00;100897.91;5224591;28;20120;-79
2021/01/14 08:24:45;;;;;;;24.38;11.60;;;;;;;1.93;100.00;100897.03;5224090;28;20024;-78
2021/01/14 08:27:30;;;;;;;24.75;12.30;;;;;;;1.89;100.00;100910.75;5224089;28;20392;-79
2021/01/14 08:30:03;;;;;;;16.23;6.50;;;;;;;1.87;100.00;100905.63;5224629;28;20024;-78
2021/01/14 08:32:58;;;;;;;14.65;7.18;;;;;;;1.89;100.00;100910.75;5224796;28;20029;-78
2021/01/14 08:35:30;;;;;;;14.83;7.20;;;;;;;1.99;100.00;100912.53;5223993;28;20408;-78
2021/01/14 08:38:06;;;;;;;23.75;13.85;;;;;;;1.92;100.00;100927.09;5224000;28;20029;-78
2021/01/14 08:40:39;;;;;;;21.60;13.05;;;;;;;2.01;100.00;100923.69;5224513;28;20031;-79
2021/01/14 08:43:11;;;;;;;13.25;8.48;;;;;;;1.98;100.00;100926.28;5224591;28;20227;-79
2021/01/14 08:45:49;;;;;;;14.02;7.10;;;;;;;1.95;100.00;100924.53;5224778;28;20103;-78
2021/01/14 08:48:26;;;;;;;15.60;6.97;;;;;;;1.86;100.00;100929.63;5224878;28;20032;-79
2021/01/14 08:50:58;;;;;;;15.13;9.20;;;;;;;1.85;100.00;100939.94;5201349;28;20689;-79
2021/01/14 08:53:34;;;;;;;16.27;8.80;;;;;;;1.78;100.00;100949.34;5223695;28;20032;-79
2021/01/14 08:56:08;;;;;;;21.15;10.30;;;;;;;1.95;100.00;100952.00;5223044;28;20016;-78
2021/01/14 08:58:43;;;;;;;18.60;9.95;;;;;;;1.97;100.00;100947.75;5223716;28;20503;-77
2021/01/14 09:01:22;;;;;;;15.75;9.02;;;;;;;1.78;100.00;100958.78;5223610;28;20115;-80
2021/01/14 09:03:56;;;;;;;19.20;9.90;;;;;;;1.91;100.00;100956.31;5224433;28;20029;-79
2021/01/14 09:06:37;;;;;;;14.50;7.80;;;;;;;1.96;100.00;100966.63;5223126;28;20057;-79
2021/01/14 09:09:13;;;;;;;17.63;8.30;;;;;;;2.11;100.00;100966.69;5222992;28;20024;-80
2021/01/14 09:11:43;;;;;;;18.80;10.27;;;;;;;2.12;100.00;100965.81;5224033;28;20527;-79
2021/01/14 09:14:15;;;;;;;53.75;27.08;;;;;;;2.17;100.00;100965.00;5223658;28;20160;-79
2021/01/14 09:16:48;;;;;;;16.50;9.93;;;;;;;2.11;100.00;100970.13;5224172;28;20483;-79
2021/01/14 09:19:20;;;;;;;17.50;8.77;;;;;;;2.03;100.00;100970.97;5223503;28;20048;-78
2021/01/14 09:21:50;;;;;;;12.23;7.10;;;;;;;2.00;100.00;100987.25;5223236;28;20087;-79
2021/01/14 09:24:20;;;;;;;15.80;7.97;;;;;;;2.06;100.00;100986.44;5222919;28;20029;-78
2021/01/14 09:26:51;;;;;;;13.73;8.88;;;;;;;2.21;100.00;100994.25;5222809;28;20025;-79
2021/01/14 09:29:29;;;;;;;14.15;6.75;;;;;;;2.00;100.00;101002.72;5223268;28;20419;-79
2021/01/14 09:32:10;;;;;;;12.35;7.40;;;;;;;2.07;100.00;101004.50;5223120;28;20391;-80
2021/01/14 09:34:40;;;;;;;18.85;8.00;;;;;;;2.30;100.00;101007.19;5223259;28;20021;-79
2021/01/14 09:37:20;;;;;;;14.27;7.03;;;;;;;2.25;100.00;101014.00;5222956;28;20025;-79
2021/01/14 09:39:51;;;;;;;14.20;6.80;;;;;;;2.32;100.00;101023.53;5223068;28;20100;-80
2021/01/14 09:42:23;;;;;;;13.82;7.13;;;;;;;2.25;100.00;101020.03;5223072;28;20607;-79
2021/01/14 09:44:55;;;;;;;22.30;10.48;;;;;;;2.32;100.00;101021.78;5222949;28;20029;-80
2021/01/14 09:47:26;;;;;;;14.75;7.22;;;;;;;2.28;100.00;101026.91;5221472;28;20032;-79
2021/01/14 09:49:57;;;;;;;16.55;7.70;;;;;;;2.36;100.00;101022.66;5222522;28;20072;-79
2021/01/14 09:52:28;;;;;;;13.52;7.00;;;;;;;2.38;100.00;101028.69;5223321;28;20791;-80
2021/01/14 09:54:59;;;;;;;16.02;7.28;;;;;;;2.34;100.00;101029.53;5222526;28;20033;-79
2021/01/14 09:57:33;;;;;;;20.75;10.57;;;;;;;2.40;100.00;101029.56;5222783;28;20025;-79
2021/01/14 10:00:04;;;;;;;21.17;10.77;;;;;;;2.39;100.00;101027.84;5223009;28;20024;-80
2021/01/14 10:02:38;;;;;;;23.90;11.60;;;;;;;2.38;100.00;101029.56;5222170;28;20391;-80
2021/01/14 10:05:15;;;;;;;14.27;7.57;;;;;;;2.36;100.00;101033.00;5206712;28;20040;-79
2021/01/14 10:07:49;;;;;;;13.77;7.88;;;;;;;2.36;100.00;101033.00;5220441;28;20025;-78
2021/01/14 10:10:20;;;;;;;15.35;6.80;;;;;;;2.34;100.00;101029.53;5222741;28;20023;-78
2021/01/14 10:12:54;;;;;;;17.55;9.00;;;;;;;2.57;100.00;101023.63;5223157;28;20467;-78
2021/01/14 10:15:25;;;;;;;15.52;8.60;;;;;;;2.59;100.00;101027.06;5222275;28;20116;-78
2021/01/14 10:17:56;;;;;;;11.98;7.63;;;;;;;2.54;100.00;101031.31;5222038;28;20146;-79
2021/01/14 10:20:31;;;;;;;51.90;19.63;;;;;;;2.50;100.00;101037.34;5222463;28;20039;-78
2021/01/14 10:23:01;;;;;;;58.35;25.83;;;;;;;2.45;100.00;101035.59;5222290;28;20431;-79
2021/01/14 10:25:31;;;;;;;18.42;10.00;;;;;;;2.53;100.00;101037.34;5222919;28;20021;-79
2021/01/14 10:28:11;;;;;;;18.50;10.10;;;;;;;2.48;100.00;101038.22;5217612;28;20051;-79
2021/01/14 10:30:41;;;;;;;20.98;10.30;;;;;;;2.52;100.00;101047.69;5224103;28;20020;-78
2021/01/14 10:33:12;;;;;;;22.67;10.75;;;;;;;2.56;100.00;101039.97;5221950;28;20025;-78
2021/01/14 10:35:43;;;;;;;22.75;9.68;;;;;;;2.53;100.00;101047.66;5219598;28;20029;-78
2021/01/14 10:38:15;;;;;;;30.85;16.85;;;;;;;2.58;100.00;101047.69;5221391;28;20021;-77
2021/01/14 10:40:56;;;;;;;25.95;12.95;;;;;;;2.54;100.00;101058.84;5220511;28;20036;-79
2021/01/14 10:43:29;;;;;;;68.22;30.67;;;;;;;2.39;100.00;101058.78;5202740;28;20025;-79
2021/01/14 10:45:59;;;;;;;77.35;30.30;;;;;;;2.66;100.00;101051.16;5220720;28;20102;-76
2021/01/14 10:48:37;;;;;;;49.42;21.75;;;;;;;2.75;100.00;101057.22;5221548;28;20068;-79
2021/01/14 10:51:08;;;;;;;52.75;22.95;;;;;;;2.59;100.00;101062.31;5221802;28;20027;-79
2021/01/14 10:53:40;;;;;;;30.27;14.38;;;;;;;2.61;100.00;101055.44;5221238;28;20020;-80
2021/01/14 10:56:15;;;;;;;37.72;17.98;;;;;;;2.69;100.00;101056.34;5220376;28;20037;-80
2021/01/14 10:58:55;;;;;;;48.28;20.95;;;;;;;2.76;100.00;101056.38;5225514;28;20511;-78
2021/01/14 11:01:25;;;;;;;51.28;23.10;;;;;;;2.75;100.00;101054.66;5220313;28;20036;-78
2021/01/14 11:04:05;;;;;;;57.38;24.50;;;;;;;2.64;100.00;101064.06;5219877;28;20467;-78
2021/01/14 11:06:37;;;;;;;18.70;9.98;;;;;;;2.48;100.00;101064.00;5221085;28;20031;-79
2021/01/14 11:09:08;;;;;;;22.63;11.23;;;;;;;2.56;100.00;101068.34;5221301;28;20033;-78
2021/01/14 11:11:39;;;;;;;35.05;15.98;;;;;;;2.62;100.00;101063.19;5221890;28;20439;-78
2021/01/14 11:14:14;;;;;;;34.05;15.25;;;;;;;2.61;100.00;101065.75;5223025;28;20042;-78
2021/01/14 11:16:45;;;;;;;20.77;10.93;;;;;;;2.49;100.00;101073.47;5225021;28;20095;-79
2021/01/14 11:19:15;;;;;;;18.13;8.85;;;;;;;2.59;100.00;101062.31;5225695;28;20025;-78
2021/01/14 11:21:46;;;;;;;56.47;22.67;;;;;;;2.52;100.00;101068.31;5225677;28;20040;-79
2021/01/14 11:24:16;;;;;;;19.33;9.85;;;;;;;2.46;100.00;101076.00;5225842;28;20013;-79
2021/01/14 11:26:46;;;;;;;19.13;11.32;;;;;;;2.48;100.00;101079.47;5225725;28;20120;-79
2021/01/14 11:29:17;;;;;;;16.30;8.77;;;;;;;2.59;100.00;101070.03;5224423;28;20044;-79
2021/01/14 11:31:47;;;;;;;32.08;18.77;;;;;;;2.49;100.00;101073.47;5225532;28;20081;-80
2021/01/14 11:34:17;;;;;;;21.33;12.63;;;;;;;2.48;100.00;101069.16;5227992;28;20064;-81
2021/01/14 11:36:47;;;;;;;25.98;15.60;;;;;;;2.51;100.00;101067.44;5225077;28;20040;-81
2021/01/14 11:39:18;;;;;;;20.92;10.65;;;;;;;2.68;100.00;101070.94;5225914;28;20021;-80
2021/01/14 11:41:52;;;;;;;25.33;11.90;;;;;;;2.54;100.00;101069.19;5231299;28;20035;-80
2021/01/14 11:44:22;;;;;;;19.53;10.47;;;;;;;2.67;100.00;101065.78;5228496;28;20024;-80
2021/01/14 11:46:53;;;;;;;14.52;9.40;;;;;;;2.71;100.00;101059.78;5223209;28;20279;-80
2021/01/14 11:49:23;;;;;;;16.75;8.80;;;;;;;2.61;100.00;101063.16;5228589;28;20028;-80